sensor_id;sensor_type;location;lat;lon;timestamp;pressure;altitude;pressure_sealevel;temperature;humidity
77149;BME280;66122;47.130;16.844;2024-02-15T00:05:09;100415.50;;;5.87;89.13
77149;BME280;66122;47.130;16.844;2024-02-15T00:15:11;100423.97;;;5.63;89.82
77149;BME280;66122;47.130;16.844;2024-02-15T00:25:15;100417.19;;;5.53;92.08
77149;BME280;66122;47.130;16.844;2024-02-15T00:35:18;100423.41;;;5.48;92.57
77149;BME280;66122;47.130;16.844;2024-02-15T00:45:21;100426.28;;;5.38;95.81
77149;BME280;66122;47.130;16.844;2024-02-15T00:55:24;100430.91;;;5.27;95.63
77149;BME280;66122;47.130;16.844;2024-02-15T01:05:26;100437.41;;;5.10;95.62
77149;BME280;66122;47.130;16.844;2024-02-15T01:15:29;100416.47;;;4.63;100.00
77149;BME280;66122;47.130;16.844;2024-02-15T01:25:32;100422.97;;;4.42;100.00
77149;BME280;66122;47.130;16.844;2024-02-15T01:35:38;100414.50;;;4.26;100.00
77149;BME280;66122;47.130;16.844;2024-02-15T01:45:40;100430.22;;;4.29;100.00
77149;BME280;66122;47.130;16.844;2024-02-15T01:55:44;100424.56;;;4.51;100.00
77149;BME280;66122;47.130;16.844;2024-02-15T02:05:47;100428.19;;;4.45;100.00
77149;BME280;66122;47.130;16.844;2024-02-15T02:15:49;100420.13;;;4.54;100.00
77149;BME280;66122;47.130;16.844;2024-02-15T02:25:54;100423.31;;;4.71;100.00
77149;BME280;66122;47.130;16.844;2024-02-15T02:35:58;100426.97;;;4.61;100.00
77149;BME280;66122;47.130;16.844;2024-02-15T02:46:00;100410.41;;;4.59;100.00
77149;BME280;66122;47.130;16.844;2024-02-15T02:56:03;100380.53;;;4.66;100.00
77149;BME280;66122;47.130;16.844;2024-02-15T03:06:06;100407.19;;;4.90;100.00
77149;BME280;66122;47.130;16.844;2024-02-15T03:16:09;100426.66;;;4.80;100.00
77149;BME280;66122;47.130;16.844;2024-02-15T03:26:11;100400.31;;;4.83;100.00
77149;BME280;66122;47.130;16.844;2024-02-15T03:36:16;100399.13;;;4.97;100.00
77149;BME280;66122;47.130;16.844;2024-02-15T03:46:20;100412.19;;;5.02;100.00
77149;BME280;66122;47.130;16.844;2024-02-15T03:56:22;100394.69;;;5.01;100.00
77149;BME280;66122;47.130;16.844;2024-02-15T04:06:25;100403.69;;;4.89;100.00
77149;BME280;66122;47.130;16.844;2024-02-15T04:16:30;100403.06;;;4.77;100.00
77149;BME280;66122;47.130;16.844;2024-02-15T04:26:38;100386.72;;;4.62;100.00
77149;BME280;66122;47.130;16.844;2024-02-15T04:36:40;100397.03;;;4.71;100.00
77149;BME280;66122;47.130;16.844;2024-02-15T04:46:45;100393.53;;;4.72;100.00
77149;BME280;66122;47.130;16.844;2024-02-15T04:56:48;100375.19;;;4.71;100.00
77149;BME280;66122;47.130;16.844;2024-02-15T05:06:53;100399.81;;;4.65;100.00
77149;BME280;66122;47.130;16.844;2024-02-15T05:16:56;100407.25;;;4.42;100.00
77149;BME280;66122;47.130;16.844;2024-02-15T05:26:58;100408.50;;;4.20;100.00
77149;BME280;66122;47.130;16.844;2024-02-15T05:37:01;100406.78;;;4.19;100.00
77149;BME280;66122;47.130;16.844;2024-02-15T05:47:04;100413.56;;;4.32;100.00
77149;BME280;66122;47.130;16.844;2024-02-15T05:57:06;100411.78;;;4.32;100.00
77149;BME280;66122;47.130;16.844;2024-02-15T06:07:09;100420.84;;;4.16;100.00
77149;BME280;66122;47.130;16.844;2024-02-15T06:17:12;100422.72;;;4.08;100.00
77149;BME280;66122;47.130;16.844;2024-02-15T06:27:15;100437.81;;;3.92;100.00
77149;BME280;66122;47.130;16.844;2024-02-15T06:37:38;100462.56;;;4.30;100.00
77149;BME280;66122;47.130;16.844;2024-02-15T06:48:03;100453.22;;;4.61;100.00
77149;BME280;66122;47.130;16.844;2024-02-15T06:58:06;100457.72;;;5.01;100.00
77149;BME280;66122;47.130;16.844;2024-02-15T07:08:09;100476.88;;;5.47;100.00
77149;BME280;66122;47.130;16.844;2024-02-15T07:18:16;100483.94;;;5.84;99.55
77149;BME280;66122;47.130;16.844;2024-02-15T07:28:20;100471.19;;;6.06;96.55
77149;BME280;66122;47.130;16.844;2024-02-15T07:38:25;100476.41;;;6.43;94.17
77149;BME280;66122;47.130;16.844;2024-02-15T07:48:29;100482.84;;;6.65;92.58
77149;BME280;66122;47.130;16.844;2024-02-15T07:58:33;100471.16;;;7.37;85.16
77149;BME280;66122;47.130;16.844;2024-02-15T08:08:43;100470.06;;;7.15;85.68
77149;BME280;66122;47.130;16.844;2024-02-15T08:18:57;100474.94;;;7.58;83.77
77149;BME280;66122;47.130;16.844;2024-02-15T08:29:02;100468.47;;;7.68;82.47
77149;BME280;66122;47.130;16.844;2024-02-15T08:39:05;100481.97;;;7.57;85.62
77149;BME280;66122;47.130;16.844;2024-02-15T08:49:10;100478.53;;;7.84;83.19
77149;BME280;66122;47.130;16.844;2024-02-15T08:59:16;100478.53;;;8.39;82.99
77149;BME280;66122;47.130;16.844;2024-02-15T09:09:19;100467.84;;;8.68;80.44
77149;BME280;66122;47.130;16.844;2024-02-15T09:19:22;100448.66;;;9.11;79.26
77149;BME280;66122;47.130;16.844;2024-02-15T09:29:30;100441.91;;;9.94;76.26
77149;BME280;66122;47.130;16.844;2024-02-15T09:39:36;100451.19;;;10.68;74.58
77149;BME280;66122;47.130;16.844;2024-02-15T09:49:41;100446.78;;;11.08;73.83
77149;BME280;66122;47.130;16.844;2024-02-15T09:59:46;100424.97;;;12.13;68.37
77149;BME280;66122;47.130;16.844;2024-02-15T10:09:49;100421.59;;;13.12;62.86
77149;BME280;66122;47.130;16.844;2024-02-15T10:20:05;100406.59;;;14.21;60.62
77149;BME280;66122;47.130;16.844;2024-02-15T10:30:19;100412.56;;;14.10;59.19
77149;BME280;66122;47.130;16.844;2024-02-15T10:40:30;100415.41;;;14.53;54.02
77149;BME280;66122;47.130;16.844;2024-02-15T10:50:32;100378.22;;;16.04;51.39
77149;BME280;66122;47.130;16.844;2024-02-15T11:00:36;100371.72;;;15.26;47.70
77149;BME280;66122;47.130;16.844;2024-02-15T11:10:43;100342.47;;;17.57;44.33
77149;BME280;66122;47.130;16.844;2024-02-15T11:20:46;100335.13;;;19.32;42.31
77149;BME280;66122;47.130;16.844;2024-02-15T11:30:51;100334.63;;;19.38;39.36
77149;BME280;66122;47.130;16.844;2024-02-15T11:50:58;100324.06;;;18.46;37.95
77149;BME280;66122;47.130;16.844;2024-02-15T12:01:02;100299.94;;;19.35;34.83
77149;BME280;66122;47.130;16.844;2024-02-15T12:11:23;100295.19;;;22.33;30.01
77149;BME280;66122;47.130;16.844;2024-02-15T12:21:45;100280.09;;;19.91;33.72
77149;BME280;66122;47.130;16.844;2024-02-15T12:31:47;100269.78;;;22.16;32.18
77149;BME280;66122;47.130;16.844;2024-02-15T12:41:51;100251.81;;;22.91;30.26
77149;BME280;66122;47.130;16.844;2024-02-15T12:52:34;100243.78;;;22.25;30.52
77149;BME280;66122;47.130;16.844;2024-02-15T13:02:45;100230.13;;;20.90;33.06
77149;BME280;66122;47.130;16.844;2024-02-15T13:12:54;100219.28;;;22.36;31.30
77149;BME280;66122;47.130;16.844;2024-02-15T13:23:10;100224.28;;;22.31;30.62
77149;BME280;66122;47.130;16.844;2024-02-15T13:33:40;100198.09;;;19.21;35.94
77149;BME280;66122;47.130;16.844;2024-02-15T13:43:45;100208.13;;;16.52;42.04
77149;BME280;66122;47.130;16.844;2024-02-15T13:53:49;100199.16;;;16.15;43.15
77149;BME280;66122;47.130;16.844;2024-02-15T14:03:52;100197.19;;;15.67;44.80
77149;BME280;66122;47.130;16.844;2024-02-15T14:13:55;100183.06;;;15.25;46.49
77149;BME280;66122;47.130;16.844;2024-02-15T14:24:00;100184.44;;;15.18;45.89
77149;BME280;66122;47.130;16.844;2024-02-15T14:34:03;100175.53;;;15.05;46.92
77149;BME280;66122;47.130;16.844;2024-02-15T14:44:06;100173.19;;;14.86;47.15
77149;BME280;66122;47.130;16.844;2024-02-15T14:54:09;100169.91;;;14.68;48.72
77149;BME280;66122;47.130;16.844;2024-02-15T15:04:12;100194.31;;;14.62;48.50
77149;BME280;66122;47.130;16.844;2024-02-15T15:14:14;100188.88;;;14.50;48.78
77149;BME280;66122;47.130;16.844;2024-02-15T15:24:17;100182.00;;;14.17;50.84
77149;BME280;66122;47.130;16.844;2024-02-15T15:34:26;100197.63;;;13.65;53.42
77149;BME280;66122;47.130;16.844;2024-02-15T15:44:30;100199.81;;;13.13;57.02
77149;BME280;66122;47.130;16.844;2024-02-15T15:54:33;100200.56;;;12.99;57.63
77149;BME280;66122;47.130;16.844;2024-02-15T16:04:45;100187.94;;;12.56;60.53
77149;BME280;66122;47.130;16.844;2024-02-15T16:14:49;100198.66;;;12.05;61.79
77149;BME280;66122;47.130;16.844;2024-02-15T16:24:52;100192.22;;;11.59;65.75
77149;BME280;66122;47.130;16.844;2024-02-15T16:34:58;100208.56;;;11.33;67.94
77149;BME280;66122;47.130;16.844;2024-02-15T16:45:07;100214.59;;;11.01;70.55
77149;BME280;66122;47.130;16.844;2024-02-15T16:55:10;100221.25;;;10.73;71.87
77149;BME280;66122;47.130;16.844;2024-02-15T17:05:13;100231.84;;;10.73;70.95
77149;BME280;66122;47.130;16.844;2024-02-15T17:15:16;100222.28;;;10.69;70.78
77149;BME280;66122;47.130;16.844;2024-02-15T17:25:18;100223.06;;;10.34;73.36
77149;BME280;66122;47.130;16.844;2024-02-15T17:35:24;100243.53;;;10.10;73.99
77149;BME280;66122;47.130;16.844;2024-02-15T17:45:27;100255.53;;;9.98;75.03
77149;BME280;66122;47.130;16.844;2024-02-15T17:55:30;100238.84;;;9.76;74.95
77149;BME280;66122;47.130;16.844;2024-02-15T18:05:33;100263.75;;;9.92;74.53
77149;BME280;66122;47.130;16.844;2024-02-15T18:15:36;100254.56;;;9.59;76.68
77149;BME280;66122;47.130;16.844;2024-02-15T18:25:45;100250.97;;;9.39;77.64
77149;BME280;66122;47.130;16.844;2024-02-15T18:35:48;100243.97;;;9.17;78.76
77149;BME280;66122;47.130;16.844;2024-02-15T18:45:51;100255.09;;;9.03;78.59
77149;BME280;66122;47.130;16.844;2024-02-15T18:55:53;100257.09;;;8.75;81.05
77149;BME280;66122;47.130;16.844;2024-02-15T19:05:58;100255.22;;;8.78;79.51
77149;BME280;66122;47.130;16.844;2024-02-15T19:16:01;100257.19;;;8.50;80.71
77149;BME280;66122;47.130;16.844;2024-02-15T19:26:04;100246.94;;;8.16;82.29
77149;BME280;66122;47.130;16.844;2024-02-15T19:36:07;100254.78;;;8.19;84.11
77149;BME280;66122;47.130;16.844;2024-02-15T19:46:10;100253.28;;;8.12;83.03
77149;BME280;66122;47.130;16.844;2024-02-15T19:56:13;100254.78;;;7.94;84.61
77149;BME280;66122;47.130;16.844;2024-02-15T20:06:18;100258.94;;;7.24;90.96
77149;BME280;66122;47.130;16.844;2024-02-15T20:16:21;100251.09;;;6.94;93.09
77149;BME280;66122;47.130;16.844;2024-02-15T20:26:24;100252.63;;;7.01;93.98
77149;BME280;66122;47.130;16.844;2024-02-15T20:36:29;100254.16;;;7.09;93.21
77149;BME280;66122;47.130;16.844;2024-02-15T20:46:32;100244.44;;;7.37;90.15
77149;BME280;66122;47.130;16.844;2024-02-15T20:56:36;100255.41;;;7.50;90.03
77149;BME280;66122;47.130;16.844;2024-02-15T21:06:39;100245.13;;;7.42;89.88
77149;BME280;66122;47.130;16.844;2024-02-15T21:16:42;100249.75;;;7.35;91.42
77149;BME280;66122;47.130;16.844;2024-02-15T21:26:46;100228.22;;;7.23;91.66
77149;BME280;66122;47.130;16.844;2024-02-15T21:36:49;100227.78;;;7.35;91.34
77149;BME280;66122;47.130;16.844;2024-02-15T21:46:52;100216.59;;;7.28;92.30
77149;BME280;66122;47.130;16.844;2024-02-15T21:56:55;100215.91;;;7.23;90.79
77149;BME280;66122;47.130;16.844;2024-02-15T22:06:57;100237.03;;;7.22;91.34
77149;BME280;66122;47.130;16.844;2024-02-15T22:17:00;100241.19;;;7.29;90.29
77149;BME280;66122;47.130;16.844;2024-02-15T22:27:02;100231.88;;;7.19;90.19
77149;BME280;66122;47.130;16.844;2024-02-15T22:37:06;100238.03;;;7.18;90.73
77149;BME280;66122;47.130;16.844;2024-02-15T22:47:08;100246.78;;;7.20;90.08
77149;BME280;66122;47.130;16.844;2024-02-15T22:57:11;100243.41;;;7.15;91.65
77149;BME280;66122;47.130;16.844;2024-02-15T23:07:13;100234.28;;;6.98;92.98
77149;BME280;66122;47.130;16.844;2024-02-15T23:17:16;100244.75;;;7.00;94.09
77149;BME280;66122;47.130;16.844;2024-02-15T23:27:18;100238.22;;;7.13;93.26
77149;BME280;66122;47.130;16.844;2024-02-15T23:37:21;100245.25;;;7.13;92.82
77149;BME280;66122;47.130;16.844;2024-02-15T23:47:41;100232.66;;;7.21;91.52
77149;BME280;66122;47.130;16.844;2024-02-15T23:57:44;100229.97;;;7.22;90.66
